Weather observations for the past three days for
Philadelphia, Northeast Philadelphia Airport
Metric (Imperial)
Date Time (edt) Wind (kph) Vis. (km) Weather Sky Cond. Temperature (ºC) Relative Humidity Wind Chill (°C) Heat Index (°C) Pressure Precipitation (cm)
Air Dwpt 6 hour altimeter (cm) sea level (mb) 1 hr 3 hr 6 hr
Max. Min.
04 18:54 NW 9 16.09 Mostly Cloudy FEW055 BKN075 27.8 20 63% 29 75.84 1010.9
04 17:54 NW 15 16.09 Partly Cloudy SCT065 28.9 20 59% 31 75.84 1011.0
04 16:54 NW 13 16.09 Fair CLR 29.4 19.4 55% 31 75.84 1010.9
04 15:54 NW 15 16.09 Mostly Cloudy SCT047 BKN060 28.9 20 59% 31 75.9 1011.5
04 14:54 W 11 G 28 16.09 Overcast SCT042 BKN050 OVC060 28.9 20 59% 31 75.95 1012.2
04 13:54 NW 13 16.09 Overcast SCT045 OVC060 29.4 20.6 29.4 24.4 59% 32 75.95 1012.4
04 12:54 NW 11 16.09 Mostly Cloudy SCT043 BKN055 29.4 20 57% 31 75.97 1012.5
04 10:54 N 20 16.09 Fair CLR 28.3 20.6 63% 30 76 1012.9
04 09:54 NW 17 G 33 16.09 Fair CLR 27.2 21.1 69% 29 75.97 1012.6
04 08:54 NW 15 G 33 16.09 Fair CLR 25.6 21.1 76% 27 75.97 1012.6
04 07:54 NW 15 16.09 Fair CLR 24.4 21.1 24.4 23.3 82% 25 75.95 1012.4
04 06:54 W 11 16.09 Fair CLR 23.9 21.1 84% 24 75.9 1011.8
04 05:54 W 15 16.09 Fair CLR 23.9 21.7 88% 24 75.9 1011.6
04 04:54 W 13 16.09 Fair CLR 24.4 22.2 88% 25 75.92 1011.9
04 03:54 SW 11 16.09 Mostly Cloudy BKN100 24.4 22.2 88% 25 75.92 1011.9
04 02:54 S 7 16.09 Fair CLR 24.4 22.2 88% 25 75.87 1011.2
04 01:54 NW 7 16.09 A Few Clouds FEW046 25 22.8 27.8 24.4 88% 26 75.9 1011.7 0.1 0.1
04 00:54 Vrbl 9 G 33 16.09 Light Rain FEW044 SCT090 BKN110 25.6 22.8 85% 27 75.92 1011.9
03 23:54 Calm 16.09 Fair CLR 26.1 22.8 82% 28 75.95 1012.5
03 22:54 Calm 16.09 Fair CLR 26.1 22.8 82% 28 76 1013.0
03 21:54 SW 9 16.09 Fair CLR 27.2 22.8 77% 30 76.02 1013.4
03 20:54 SW 15 16.09 Fair CLR 27.8 23.3 77% 31 76.05 1013.6
03 19:54 SW 11 16.09 Fair CLR 28.3 23.3 31.1 27.8 74% 32 76 1013.1
03 18:54 SW 13 16.09 Fair CLR 28.9 23.3 72% 33 75.97 1012.8
03 17:54 W 11 16.09 Fair CLR 30.6 21.1 57% 33 75.95 1012.5
03 16:54 W 15 16.09 Fair CLR 31.1 20.6 54% 34 75.95 1012.3
03 15:54 W 22 G 31 16.09 A Few Clouds FEW039 31.1 21.1 55% 34 75.97 1012.6
03 14:54 SW 17 16.09 Fair CLR 30.6 22.2 61% 34 76.02 1013.5
03 13:54 W 19 16.09 A Few Clouds FEW035 30 22.2 30.6 22.2 63% 33 76.07 1014.0
03 12:54 W 20 16.09 Fair CLR 29.4 22.8 68% 33 76.12 1014.8
03 11:54 W 22 16.09 A Few Clouds FEW022 27.8 22.8 74% 31 76.2 1015.9
03 10:54 W 19 16.09 Partly Cloudy SCT017 26.1 22.2 79% 28 76.23 1015.9
03 09:54 SW 19 16.09 Fair CLR 25.6 22.2 82% 27 76.17 1015.5
03 08:54 SW 11 16.09 Fair CLR 23.3 21.7 91% 76.2 1015.6
03 07:54 SW 11 16.09 Mostly Cloudy BKN110 22.2 21.7 22.2 20.6 97% 76.17 1015.3 0.25
03 06:54 SW 17 16.09 Partly Cloudy SCT005 SCT120 22.2 21.7 97% 76.28 1016.7
03 05:54 SW 15 14.48 Light Rain SCT004 SCT065 BKN110 21.7 21.1 96% 76.23 1016.0 0.03
03 04:54 Calm 8.05 Light Rain Fog/Mist FEW008 BKN090 OVC110 21.1 20.6 97% 76.33 1017.6 0.05 0.23
03 03:54 W 7 16.09 Overcast OVC003 21.1 20.6 97% 76.33 1017.6
03 02:54 Calm 16.09 Overcast BKN003 OVC090 20.6 20.6 100% 76.3 1017.3 0.18
03 01:54 N 13 8.05 Light Rain Fog/Mist SCT007 BKN038 OVC070 21.1 20.6 22.2 21.1 97% 76.4 1018.7 0.05 0.05
03 00:54 NE 9 16.09 Overcast OVC009 21.1 20 93% 76.38 1018.2
02 23:54 E 6 16.09 Overcast OVC011 21.7 20 90% 76.43 1018.9
02 22:54 SE 7 16.09 Overcast OVC014 21.7 20 90% 76.4 1018.5
02 21:54 E 7 16.09 Overcast OVC008 21.1 20.6 97% 76.4 1018.5
02 20:54 E 15 14.48 Overcast OVC010 21.7 20 90% 76.43 1019.0
02 19:54 E 11 16.09 Overcast OVC012 22.2 20 22.8 21.7 87% 76.4 1018.4 0.03
02 18:54 E 11 16.09 Overcast OVC014 22.2 20.6 91% 76.4 1018.6
02 17:54 E 13 16.09 Overcast OVC014 22.8 20.6 87% 76.45 1019.2
02 16:54 E 11 16.09 Overcast SCT005 OVC018 22.2 21.1 94% 76.43 1018.9 0.03
02 15:54 E 11 3.22 Fog/Mist BKN007 OVC014 21.7 21.1 96% 76.43 1018.9
02 14:54 E 7 14.48 Overcast OVC007 21.7 21.1 96% 76.48 1019.6 0.03
02 13:54 SE 11 4.83 Fog/Mist OVC006 21.7 21.1 22.2 20.6 96% 76.48 1019.5
02 12:54 NE 7 12.87 Overcast OVC007 22.2 20.6 91% 76.56 1020.5
02 11:54 E 13 11.27 Overcast OVC006 21.7 20.6 94% 76.56 1020.4
02 10:54 E 11 16.09 Overcast OVC007 21.7 20 90% 76.56 1020.5
02 09:54 E 15 16.09 Overcast OVC007 21.7 20 90% 76.56 1020.4
02 08:54 E 11 14.48 Overcast OVC006 21.1 20 93% 76.5 1019.8
02 07:54 E 13 4.02 Fog/Mist OVC004 20.6 20 22.2 20.6 96% 76.48 1019.5
02 06:54 E 15 2.82 Fog/Mist OVC004 20.6 20 96% 76.48 1019.3
02 05:54 NE 9 3.22 Fog/Mist OVC004 20.6 20.6 100% 76.45 1019.2
02 04:54 E 11 6.44 Fog/Mist OVC004 21.1 20.6 97% 76.4 1018.5
02 03:54 E 13 9.66 Fog/Mist OVC004 21.1 20.6 97% 76.38 1018.1
02 02:54 E 13 9.66 Fog/Mist OVC003 21.7 21.1 96% 76.35 1017.8
02 01:54 E 19 11.27 Overcast OVC004 22.2 21.7 30 22.2 97% 76.33 1017.3 0.74
02 00:54 N 6 16.09 Fair CLR 22.8 21.7 94% 76.35 1017.7
01 23:54 Calm 16.09 Partly Cloudy SCT044 22.8 22.2 96% 76.3 1017.2
01 22:54 Calm 16.09 A Few Clouds FEW034 FEW042 22.8 21.7 94% 76.23 1016.1 0.74
01 21:54 Vrbl 9 16.09 Overcast FEW009 BKN047 OVC060 23.9 22.2 90% 23 76.25 1016.5 0.43
01 20:54 NW 17 G 39 6.44 Rain SCT039 BKN047 OVC070 25 22.2 85% 26 76.02 1013.4 0.3
01 19:54 Calm 16.09 Partly Cloudy SCT065 30 23.9 32.8 29.4 70% 35 76 1013.0
Date Time (edt) Wind (kph) Vis. (km) Weather Sky Cond. Air Dwpt Max. Min. Relative Humidity Wind Chill (°C) Heat Index (°C) altimeter (cm) sea level (mb) 1 hr 3 hr 6 hr
6 hour
Temperature (ºC) Pressure Precipitation (cm)